Terminal Aerodrome Forecast
Issued by NWS

Home | Current Version | Previous Version | Graphics & Text | Print | Product List | Glossary On
Versions: 1 2 3 4 5 6 7 8 9 10 11 12
930
FTUS45 KGGW 110520
TAFSDY
TAF
KSDY 110520Z 1106/1206 VRB03KT P6SM OVC014
     FM110800 00000KT P6SM -SN OVC020
     FM111200 08007KT 2SM -SN OVC015
     FM112100 02004KT P6SM VCSH OVC008
     FM120000 01006KT P6SM OVC015
      AMD LTD TO CLD VIS AND WIND=

USA.gov is the U.S. government's official web portal to all federal, state and local government web resources and services.